sensor_id;sensor_type;location;lat;lon;timestamp;pressure;altitude;pressure_sealevel;temperature;humidity
3254;BME280;1639;42.804;23.342;2023-04-01T00:00:44;72678.59;;;-148.52;70.03
3254;BME280;1639;42.804;23.342;2023-04-01T00:03:09;72664.13;;;-148.52;68.31
3254;BME280;1639;42.804;23.342;2023-04-01T00:05:35;72633.13;;;-148.52;66.45
3254;BME280;1639;42.804;23.342;2023-04-01T00:08:00;72651.72;;;-148.52;67.23
3254;BME280;1639;42.804;23.342;2023-04-01T00:10:26;72653.78;;;-148.52;65.41
3254;BME280;1639;42.804;23.342;2023-04-01T00:12:51;72664.13;;;-148.52;65.58
3254;BME280;1639;42.804;23.342;2023-04-01T00:15:16;72651.72;;;-148.52;65.75
3254;BME280;1639;42.804;23.342;2023-04-01T00:17:42;72614.50;;;-148.52;65.12
3254;BME280;1639;42.804;23.342;2023-04-01T00:20:08;72600.03;;;-148.52;65.28
3254;BME280;1639;42.804;23.342;2023-04-01T00:22:34;72583.47;;;-148.52;64.30
3254;BME280;1639;42.804;23.342;2023-04-01T00:25:00;72575.22;;;-148.52;63.99
3254;BME280;1639;42.804;23.342;2023-04-01T00:27:25;72581.41;;;-148.52;64.33
3254;BME280;1639;42.804;23.342;2023-04-01T00:29:51;72575.22;;;-148.52;64.36
3254;BME280;1639;42.804;23.342;2023-04-01T00:32:16;72591.75;;;-148.52;63.03
3254;BME280;1639;42.804;23.342;2023-04-01T00:34:42;72562.81;;;-148.52;62.07
3254;BME280;1639;42.804;23.342;2023-04-01T00:37:09;72550.38;;;-148.52;61.66
3254;BME280;1639;42.804;23.342;2023-04-01T00:39:35;72535.91;;;-148.52;61.87
3254;BME280;1639;42.804;23.342;2023-04-01T00:42:02;72521.44;;;-148.52;61.05
3254;BME280;1639;42.804;23.342;2023-04-01T00:44:33;72523.50;;;-148.52;61.52
3254;BME280;1639;42.804;23.342;2023-04-01T00:46:59;72506.97;;;-148.52;60.16
3254;BME280;1639;42.804;23.342;2023-04-01T00:49:29;72504.91;;;-148.52;60.82
3254;BME280;1639;42.804;23.342;2023-04-01T00:51:57;72504.91;;;-148.52;59.72
3254;BME280;1639;42.804;23.342;2023-04-01T00:54:26;72504.91;;;-148.52;59.45
3254;BME280;1639;42.804;23.342;2023-04-01T00:57:21;72535.91;;;-148.52;61.43
3254;BME280;1639;42.804;23.342;2023-04-01T00:59:50;72533.84;;;-148.52;61.69
3254;BME280;1639;42.804;23.342;2023-04-01T01:02:18;72546.25;;;-148.52;61.72
3254;BME280;1639;42.804;23.342;2023-04-01T01:04:44;72583.47;;;-148.52;62.64
3254;BME280;1639;42.804;23.342;2023-04-01T01:12:40;72595.88;;;-148.52;63.56
3254;BME280;1639;42.804;23.342;2023-04-01T01:15:20;72597.97;;;-148.52;63.68
3254;BME280;1639;42.804;23.342;2023-04-01T01:17:56;72624.84;;;-148.52;64.98
3254;BME280;1639;42.804;23.342;2023-04-01T01:23:42;72633.13;;;-148.52;65.57
3254;BME280;1639;42.804;23.342;2023-04-01T01:36:59;72647.59;;;-148.52;67.23
3254;BME280;1639;42.804;23.342;2023-04-01T01:39:28;72705.50;;;-148.52;69.91
3254;BME280;1639;42.804;23.342;2023-04-01T01:41:57;72715.84;;;-148.52;71.44
3254;BME280;1639;42.804;23.342;2023-04-01T01:44:26;72705.50;;;-148.52;71.10
3254;BME280;1639;42.804;23.342;2023-04-01T01:46:55;72715.84;;;-148.52;71.03
3254;BME280;1639;42.804;23.342;2023-04-01T01:49:21;72734.44;;;-148.52;72.02
3254;BME280;1639;42.804;23.342;2023-04-01T01:51:48;72734.44;;;-148.52;72.58
3254;BME280;1639;42.804;23.342;2023-04-01T01:54:17;72744.78;;;-148.52;73.82
3254;BME280;1639;42.804;23.342;2023-04-01T01:56:46;72738.59;;;-148.52;74.42
3254;BME280;1639;42.804;23.342;2023-04-01T01:59:15;72753.06;;;-148.52;74.23
3254;BME280;1639;42.804;23.342;2023-04-01T02:01:48;72786.16;;;-148.52;75.44
3254;BME280;1639;42.804;23.342;2023-04-01T02:04:16;72806.81;;;-148.52;78.60
3254;BME280;1639;42.804;23.342;2023-04-01T02:06:51;72819.25;;;-148.52;81.04
3254;BME280;1639;42.804;23.342;2023-04-01T02:09:19;72779.94;;;-148.52;79.70
3254;BME280;1639;42.804;23.342;2023-04-01T02:11:55;72825.44;;;-148.52;81.84
3254;BME280;1639;42.804;23.342;2023-04-01T02:14:23;72837.84;;;-148.52;85.37
3254;BME280;1639;42.804;23.342;2023-04-01T02:16:57;72846.13;;;-148.52;85.30
3254;BME280;1639;42.804;23.342;2023-04-01T02:19:38;72823.38;;;-148.52;85.29
3254;BME280;1639;42.804;23.342;2023-04-01T02:22:08;72808.91;;;-148.52;83.65
3254;BME280;1639;42.804;23.342;2023-04-01T02:24:37;72773.75;;;-148.52;82.00
3254;BME280;1639;42.804;23.342;2023-04-01T02:27:04;72744.78;;;-148.52;79.84
3254;BME280;1639;42.804;23.342;2023-04-01T02:29:30;72746.84;;;-148.52;78.08
3254;BME280;1639;42.804;23.342;2023-04-01T02:31:56;72709.63;;;-148.52;76.83
3254;BME280;1639;42.804;23.342;2023-04-01T02:34:23;72711.69;;;-148.52;74.84
3254;BME280;1639;42.804;23.342;2023-04-01T02:36:50;72703.44;;;-148.52;74.09
3254;BME280;1639;42.804;23.342;2023-04-01T02:39:16;72703.44;;;-148.52;73.28
3254;BME280;1639;42.804;23.342;2023-04-01T02:41:43;72713.75;;;-148.52;74.15
3254;BME280;1639;42.804;23.342;2023-04-01T02:44:10;72707.56;;;-148.52;73.63
3254;BME280;1639;42.804;23.342;2023-04-01T02:46:36;72682.75;;;-148.52;73.14
3254;BME280;1639;42.804;23.342;2023-04-01T02:49:02;72686.88;;;-148.52;72.58
3254;BME280;1639;42.804;23.342;2023-04-01T02:51:27;72688.94;;;-148.52;72.56
3254;BME280;1639;42.804;23.342;2023-04-01T02:53:53;72691.00;;;-148.52;72.74
3254;BME280;1639;42.804;23.342;2023-04-01T02:56:18;72693.09;;;-148.52;73.39
3254;BME280;1639;42.804;23.342;2023-04-01T02:58:45;72703.44;;;-148.52;71.98
3254;BME280;1639;42.804;23.342;2023-04-01T03:01:11;72699.28;;;-148.52;71.65
3254;BME280;1639;42.804;23.342;2023-04-01T03:03:36;72691.00;;;-148.52;71.76
3254;BME280;1639;42.804;23.342;2023-04-01T03:06:09;72682.75;;;-148.52;70.61
3254;BME280;1639;42.804;23.342;2023-04-01T03:08:35;72693.09;;;-148.52;71.96
3254;BME280;1639;42.804;23.342;2023-04-01T03:11:01;72676.53;;;-148.52;70.87
3254;BME280;1639;42.804;23.342;2023-04-01T03:13:26;72657.94;;;-148.52;69.84
3254;BME280;1639;42.804;23.342;2023-04-01T03:15:52;72657.94;;;-148.52;69.95
3254;BME280;1639;42.804;23.342;2023-04-01T03:18:18;72660.00;;;-148.52;71.48
3254;BME280;1639;42.804;23.342;2023-04-01T03:20:43;72651.72;;;-148.52;72.32
3254;BME280;1639;42.804;23.342;2023-04-01T03:23:09;72645.53;;;-148.52;71.96
3254;BME280;1639;42.804;23.342;2023-04-01T03:25:34;72628.97;;;-148.52;73.76
3254;BME280;1639;42.804;23.342;2023-04-01T03:28:00;72626.91;;;-148.52;75.37
3254;BME280;1639;42.804;23.342;2023-04-01T03:30:26;72622.78;;;-148.52;76.06
3254;BME280;1639;42.804;23.342;2023-04-01T03:32:52;72614.50;;;-148.52;75.96
3254;BME280;1639;42.804;23.342;2023-04-01T03:35:17;72628.97;;;-148.52;77.90
3254;BME280;1639;42.804;23.342;2023-04-01T03:37:43;72639.31;;;-148.52;78.22
3254;BME280;1639;42.804;23.342;2023-04-01T03:40:09;72616.56;;;-148.52;78.81
3254;BME280;1639;42.804;23.342;2023-04-01T03:42:34;72608.28;;;-148.52;81.29
3254;BME280;1639;42.804;23.342;2023-04-01T03:45:00;72647.59;;;-148.52;84.57
3254;BME280;1639;42.804;23.342;2023-04-01T03:47:26;72649.66;;;-148.52;90.79
3254;BME280;1639;42.804;23.342;2023-04-01T03:49:51;72637.25;;;-148.52;89.28
3254;BME280;1639;42.804;23.342;2023-04-01T03:52:16;72631.03;;;-148.52;90.53
3254;BME280;1639;42.804;23.342;2023-04-01T03:54:42;72649.66;;;-148.52;92.65
3254;BME280;1639;42.804;23.342;2023-04-01T03:57:07;72631.03;;;-148.52;93.22
3254;BME280;1639;42.804;23.342;2023-04-01T03:59:33;72628.97;;;-148.52;91.45
3254;BME280;1639;42.804;23.342;2023-04-01T04:01:58;72678.59;;;-148.52;93.22
3254;BME280;1639;42.804;23.342;2023-04-01T04:04:24;72699.28;;;-148.52;100.00
3254;BME280;1639;42.804;23.342;2023-04-01T04:06:49;72684.81;;;-148.52;100.00
3254;BME280;1639;42.804;23.342;2023-04-01T04:09:16;72655.84;;;-148.52;100.00
3254;BME280;1639;42.804;23.342;2023-04-01T04:11:41;72653.78;;;-148.52;100.00
3254;BME280;1639;42.804;23.342;2023-04-01T04:14:07;72624.84;;;-148.52;100.00
3254;BME280;1639;42.804;23.342;2023-04-01T04:16:34;72612.44;;;-148.52;100.00
3254;BME280;1639;42.804;23.342;2023-04-01T04:19:01;72591.75;;;-148.52;100.00
3254;BME280;1639;42.804;23.342;2023-04-01T04:21:27;72579.34;;;-148.52;100.00
3254;BME280;1639;42.804;23.342;2023-04-01T04:23:52;72575.22;;;-148.52;100.00
3254;BME280;1639;42.804;23.342;2023-04-01T04:26:18;72556.59;;;-148.52;100.00
3254;BME280;1639;42.804;23.342;2023-04-01T04:28:43;72544.19;;;-148.52;100.00
3254;BME280;1639;42.804;23.342;2023-04-01T04:31:08;72527.66;;;-148.52;100.00
3254;BME280;1639;42.804;23.342;2023-04-01T04:33:34;72509.03;;;-148.52;100.00
3254;BME280;1639;42.804;23.342;2023-04-01T04:36:00;72482.16;;;-148.52;99.66
3254;BME280;1639;42.804;23.342;2023-04-01T04:38:27;72467.66;;;-148.52;97.03
3254;BME280;1639;42.804;23.342;2023-04-01T04:40:53;72451.13;;;-148.52;96.14
3254;BME280;1639;42.804;23.342;2023-04-01T04:43:19;72438.72;;;-148.52;95.57
3254;BME280;1639;42.804;23.342;2023-04-01T04:45:45;72432.53;;;-148.52;95.58
3254;BME280;1639;42.804;23.342;2023-04-01T04:48:12;72424.25;;;-148.52;94.17
3254;BME280;1639;42.804;23.342;2023-04-01T04:50:43;72422.19;;;-148.52;93.06
3254;BME280;1639;42.804;23.342;2023-04-01T04:53:10;72420.09;;;-148.52;93.18
3254;BME280;1639;42.804;23.342;2023-04-01T04:55:36;72409.78;;;-148.52;94.67
3254;BME280;1639;42.804;23.342;2023-04-01T04:58:01;72401.50;;;-148.52;92.53
3254;BME280;1639;42.804;23.342;2023-04-01T05:00:26;72397.38;;;-148.52;92.09
3254;BME280;1639;42.804;23.342;2023-04-01T05:02:52;72384.97;;;-148.52;92.49
3254;BME280;1639;42.804;23.342;2023-04-01T05:05:17;72370.47;;;-148.52;92.62
3254;BME280;1639;42.804;23.342;2023-04-01T05:07:43;72424.25;;;-148.52;90.60
3254;BME280;1639;42.804;23.342;2023-04-01T05:10:08;72424.25;;;-148.52;89.42
3254;BME280;1639;42.804;23.342;2023-04-01T05:12:34;72430.44;;;-148.52;90.25
3254;BME280;1639;42.804;23.342;2023-04-01T05:15:05;72447.00;;;-148.52;89.30
3254;BME280;1639;42.804;23.342;2023-04-01T05:17:31;72455.25;;;-148.52;89.96
3254;BME280;1639;42.804;23.342;2023-04-01T05:19:57;72459.41;;;-148.52;90.69
3254;BME280;1639;42.804;23.342;2023-04-01T05:22:23;72459.41;;;-148.52;90.48
3254;BME280;1639;42.804;23.342;2023-04-01T05:24:48;72453.19;;;-148.52;89.06
3254;BME280;1639;42.804;23.342;2023-04-01T05:27:14;72455.25;;;-148.52;87.89
3254;BME280;1639;42.804;23.342;2023-04-01T05:29:39;72478.00;;;-148.52;89.72
3254;BME280;1639;42.804;23.342;2023-04-01T05:32:05;72531.78;;;-148.52;97.10
3254;BME280;1639;42.804;23.342;2023-04-01T05:34:30;72506.97;;;-148.52;97.96
3254;BME280;1639;42.804;23.342;2023-04-01T05:36:56;72465.59;;;-148.52;95.87
3254;BME280;1639;42.804;23.342;2023-04-01T05:39:21;72418.03;;;-148.52;96.29
3254;BME280;1639;42.804;23.342;2023-04-01T05:41:47;72370.47;;;-148.52;95.84
3254;BME280;1639;42.804;23.342;2023-04-01T05:44:12;72366.34;;;-148.52;92.46
3254;BME280;1639;42.804;23.342;2023-04-01T05:46:37;72347.72;;;-148.52;91.02
3254;BME280;1639;42.804;23.342;2023-04-01T05:49:03;72349.81;;;-148.52;89.73
3254;BME280;1639;42.804;23.342;2023-04-01T05:51:28;72325.00;;;-148.52;90.26
3254;BME280;1639;42.804;23.342;2023-04-01T05:53:54;72293.97;;;-148.52;89.48
3254;BME280;1639;42.804;23.342;2023-04-01T05:56:19;72252.63;;;-148.52;87.50
3254;BME280;1639;42.804;23.342;2023-04-01T05:58:50;72215.38;;;-148.52;84.33
3254;BME280;1639;42.804;23.342;2023-04-01T06:01:15;72176.09;;;-148.52;82.35
3254;BME280;1639;42.804;23.342;2023-04-01T06:03:41;72155.44;;;-148.52;80.24
3254;BME280;1639;42.804;23.342;2023-04-01T06:06:14;72155.44;;;-148.52;75.89
3254;BME280;1639;42.804;23.342;2023-04-01T06:08:41;72124.41;;;-148.52;79.16
3254;BME280;1639;42.804;23.342;2023-04-01T06:16:38;72076.84;;;-148.52;72.69
3254;BME280;1639;42.804;23.342;2023-04-01T06:21:56;72054.09;;;-148.52;69.32
3254;BME280;1639;42.804;23.342;2023-04-01T06:27:24;72018.94;;;-148.52;70.06
3254;BME280;1639;42.804;23.342;2023-04-01T06:37:50;71963.13;;;-148.52;69.29
3254;BME280;1639;42.804;23.342;2023-04-01T06:56:20;72004.47;;;-148.52;70.58
3254;BME280;1639;42.804;23.342;2023-04-01T06:58:51;71987.94;;;-148.52;70.73
3254;BME280;1639;42.804;23.342;2023-04-01T07:01:25;71973.47;;;-148.52;69.44
3254;BME280;1639;42.804;23.342;2023-04-01T07:03:56;71965.19;;;-148.52;71.93
3254;BME280;1639;42.804;23.342;2023-04-01T07:06:30;71971.41;;;-148.52;69.71
3254;BME280;1639;42.804;23.342;2023-04-01T07:08:59;71985.88;;;-148.52;70.96
3254;BME280;1639;42.804;23.342;2023-04-01T07:11:31;71998.28;;;-148.52;72.86
3254;BME280;1639;42.804;23.342;2023-04-01T07:16:45;71888.69;;;-148.52;67.31
3254;BME280;1639;42.804;23.342;2023-04-01T07:19:31;71826.66;;;-148.52;66.50
3254;BME280;1639;42.804;23.342;2023-04-01T07:22:05;71797.72;;;-148.52;63.07
3254;BME280;1639;42.804;23.342;2023-04-01T07:24:37;71781.19;;;-148.52;60.28
3254;BME280;1639;42.804;23.342;2023-04-01T07:27:09;71766.69;;;-148.52;59.34
3254;BME280;1639;42.804;23.342;2023-04-01T07:29:34;71746.03;;;-148.52;60.01
3254;BME280;1639;42.804;23.342;2023-04-01T07:35:05;71768.78;;;-148.52;60.11
3254;BME280;1639;42.804;23.342;2023-04-01T07:45:21;71715.00;;;-148.52;56.60
3254;BME280;1639;42.804;23.342;2023-04-01T07:51:02;71727.41;;;-148.52;56.20
3254;BME280;1639;42.804;23.342;2023-04-01T07:53:37;71727.41;;;-148.52;56.71
3254;BME280;1639;42.804;23.342;2023-04-01T07:56:10;71706.75;;;-148.52;56.68
3254;BME280;1639;42.804;23.342;2023-04-01T08:04:58;71644.72;;;-148.52;54.33
3254;BME280;1639;42.804;23.342;2023-04-01T08:07:52;71650.91;;;-148.52;53.06
3254;BME280;1639;42.804;23.342;2023-04-01T08:13:34;71630.25;;;-148.52;54.96
3254;BME280;1639;42.804;23.342;2023-04-01T08:16:17;71611.63;;;-148.52;55.96
3254;BME280;1639;42.804;23.342;2023-04-01T08:22:27;71555.81;;;-148.52;52.08
3254;BME280;1639;42.804;23.342;2023-04-01T08:24:54;71574.41;;;-148.52;52.76
3254;BME280;1639;42.804;23.342;2023-04-01T08:27:37;71553.75;;;-148.52;51.78
3254;BME280;1639;42.804;23.342;2023-04-01T08:30:15;71526.88;;;-148.52;53.35
3254;BME280;1639;42.804;23.342;2023-04-01T08:32:46;71508.25;;;-148.52;52.51
3254;BME280;1639;42.804;23.342;2023-04-01T08:35:37;71477.25;;;-148.52;50.73
3254;BME280;1639;42.804;23.342;2023-04-01T08:38:11;71442.09;;;-148.52;49.86
3254;BME280;1639;42.804;23.342;2023-04-01T08:54:43;71249.84;;;-148.52;46.73
3254;BME280;1639;42.804;23.342;2023-04-01T09:08:24;71253.97;;;-148.52;43.48
3254;BME280;1639;42.804;23.342;2023-04-01T09:11:37;71322.19;;;-148.52;45.26
3254;BME280;1639;42.804;23.342;2023-04-01T09:14:21;71282.91;;;-148.52;42.90
3254;BME280;1639;42.804;23.342;2023-04-01T09:19:54;71326.34;;;-148.52;41.71
3254;BME280;1639;42.804;23.342;2023-04-01T09:25:18;71287.06;;;-148.52;44.81
3254;BME280;1639;42.804;23.342;2023-04-01T09:36:46;71270.50;;;-148.52;44.01
3254;BME280;1639;42.804;23.342;2023-04-01T09:45:04;71210.56;;;-148.52;42.57
3254;BME280;1639;42.804;23.342;2023-04-01T09:56:19;71146.47;;;-148.52;41.75
3254;BME280;1639;42.804;23.342;2023-04-01T10:01:49;71001.78;;;-148.52;40.55
3254;BME280;1639;42.804;23.342;2023-04-01T10:16:22;70958.38;;;-148.52;39.48
3254;BME280;1639;42.804;23.342;2023-04-01T10:19:07;70987.31;;;-148.52;39.26
3254;BME280;1639;42.804;23.342;2023-04-01T10:27:43;70927.34;;;-148.52;38.24
3254;BME280;1639;42.804;23.342;2023-04-01T10:32:49;70850.88;;;-148.52;38.59
3254;BME280;1639;42.804;23.342;2023-04-01T10:35:43;70826.06;;;-148.52;36.48
3254;BME280;1639;42.804;23.342;2023-04-01T10:38:41;70857.06;;;-148.52;37.70
3254;BME280;1639;42.804;23.342;2023-04-01T10:44:30;70892.22;;;-148.52;36.57
3254;BME280;1639;42.804;23.342;2023-04-01T10:55:53;70956.28;;;-148.52;36.64
3254;BME280;1639;42.804;23.342;2023-04-01T10:58:51;70966.63;;;-148.52;36.68
3254;BME280;1639;42.804;23.342;2023-04-01T11:07:14;71105.13;;;-148.52;40.66
3254;BME280;1639;42.804;23.342;2023-04-01T11:23:17;71134.06;;;-148.52;41.83
3254;BME280;1639;42.804;23.342;2023-04-01T11:28:57;71140.28;;;-148.52;42.02
3254;BME280;1639;42.804;23.342;2023-04-01T11:37:20;71183.69;;;-148.52;41.67
3254;BME280;1639;42.804;23.342;2023-04-01T11:54:01;71832.88;;;-148.52;74.56
3254;BME280;1639;42.804;23.342;2023-04-01T12:08:02;71996.22;;;-148.52;92.49
3254;BME280;1639;42.804;23.342;2023-04-01T12:13:35;72025.16;;;-148.52;96.64
3254;BME280;1639;42.804;23.342;2023-04-01T12:18:43;72012.75;;;-148.52;97.79
3254;BME280;1639;42.804;23.342;2023-04-01T12:27:12;72016.88;;;-148.52;92.41
3254;BME280;1639;42.804;23.342;2023-04-01T12:32:58;71996.22;;;-148.52;90.17
3254;BME280;1639;42.804;23.342;2023-04-01T12:35:20;71971.41;;;-148.52;90.94
3254;BME280;1639;42.804;23.342;2023-04-01T12:38:04;71944.53;;;-148.52;89.81
3254;BME280;1639;42.804;23.342;2023-04-01T12:40:40;71905.22;;;-148.52;86.19
3254;BME280;1639;42.804;23.342;2023-04-01T12:52:04;71826.66;;;-148.52;87.32
3254;BME280;1639;42.804;23.342;2023-04-01T12:57:43;71799.78;;;-148.52;85.81
3254;BME280;1639;42.804;23.342;2023-04-01T13:14:44;71801.84;;;-148.52;88.27
3254;BME280;1639;42.804;23.342;2023-04-01T13:47:43;71746.03;;;-148.52;82.80
3254;BME280;1639;42.804;23.342;2023-04-01T13:55:33;71797.72;;;-148.52;82.23
3254;BME280;1639;42.804;23.342;2023-04-01T14:11:45;71686.06;;;-148.52;72.21
3254;BME280;1639;42.804;23.342;2023-04-01T14:33:26;71686.06;;;-148.52;70.38
3254;BME280;1639;42.804;23.342;2023-04-01T14:38:53;71673.66;;;-148.52;65.29
3254;BME280;1639;42.804;23.342;2023-04-01T14:41:46;71681.94;;;-148.52;65.42
3254;BME280;1639;42.804;23.342;2023-04-01T14:47:11;71673.66;;;-148.52;65.48
3254;BME280;1639;42.804;23.342;2023-04-01T14:52:41;71669.53;;;-148.52;64.37
3254;BME280;1639;42.804;23.342;2023-04-01T14:57:59;71679.88;;;-148.52;63.79
3254;BME280;1639;42.804;23.342;2023-04-01T15:00:25;71679.88;;;-148.52;66.19
3254;BME280;1639;42.804;23.342;2023-04-01T15:03:22;71669.53;;;-148.52;63.93
3254;BME280;1639;42.804;23.342;2023-04-01T15:09:06;71667.47;;;-148.52;61.92
3254;BME280;1639;42.804;23.342;2023-04-01T15:14:41;71665.38;;;-148.52;62.87
3254;BME280;1639;42.804;23.342;2023-04-01T15:28:47;71605.44;;;-148.52;64.24
3254;BME280;1639;42.804;23.342;2023-04-01T15:36:47;71570.28;;;-148.52;62.54
3254;BME280;1639;42.804;23.342;2023-04-01T15:39:18;71570.28;;;-148.52;62.43
3254;BME280;1639;42.804;23.342;2023-04-01T15:42:26;71595.09;;;-148.52;63.13
3254;BME280;1639;42.804;23.342;2023-04-01T15:49:57;72016.88;;;-148.52;65.70
3254;BME280;1639;42.804;23.342;2023-04-01T15:57:42;72207.13;;;-148.52;71.02
3254;BME280;1639;42.804;23.342;2023-04-01T16:00:29;72244.34;;;-148.52;73.26
3254;BME280;1639;42.804;23.342;2023-04-01T16:09:17;72349.81;;;-148.52;100.00
3254;BME280;1639;42.804;23.342;2023-04-01T16:12:31;72376.69;;;-148.52;100.00
3254;BME280;1639;42.804;23.342;2023-04-01T16:18:18;72382.88;;;-148.52;100.00
3254;BME280;1639;42.804;23.342;2023-04-01T16:23:26;72368.41;;;-148.52;100.00
3254;BME280;1639;42.804;23.342;2023-04-01T16:29:12;72364.28;;;-148.52;100.00
3254;BME280;1639;42.804;23.342;2023-04-01T16:31:59;72358.06;;;-148.52;100.00
3254;BME280;1639;42.804;23.342;2023-04-01T16:37:39;72356.00;;;-148.52;100.00
3254;BME280;1639;42.804;23.342;2023-04-01T16:47:54;72364.28;;;-148.52;94.42
3254;BME280;1639;42.804;23.342;2023-04-01T16:50:23;72384.97;;;-148.52;94.09
3254;BME280;1639;42.804;23.342;2023-04-01T16:53:09;72405.63;;;-148.52;95.03
3254;BME280;1639;42.804;23.342;2023-04-01T16:55:56;72415.97;;;-148.52;99.64
3254;BME280;1639;42.804;23.342;2023-04-01T16:58:36;72420.09;;;-148.52;98.46
3254;BME280;1639;42.804;23.342;2023-04-01T17:01:14;72442.84;;;-148.52;100.00
3254;BME280;1639;42.804;23.342;2023-04-01T17:03:46;72442.84;;;-148.52;100.00
3254;BME280;1639;42.804;23.342;2023-04-01T17:06:26;72442.84;;;-148.52;100.00
3254;BME280;1639;42.804;23.342;2023-04-01T17:14:36;72513.16;;;-148.52;97.21
3254;BME280;1639;42.804;23.342;2023-04-01T17:20:05;72550.38;;;-148.52;95.50
3254;BME280;1639;42.804;23.342;2023-04-01T17:22:55;72556.59;;;-148.52;95.19
3254;BME280;1639;42.804;23.342;2023-04-01T17:31:07;72583.47;;;-148.52;94.67
3254;BME280;1639;42.804;23.342;2023-04-01T17:39:33;72602.09;;;-148.52;94.08
3254;BME280;1639;42.804;23.342;2023-04-01T17:42:12;72618.63;;;-148.52;94.61
3254;BME280;1639;42.804;23.342;2023-04-01T17:45:04;72635.19;;;-148.52;95.13
3254;BME280;1639;42.804;23.342;2023-04-01T17:58:44;72703.44;;;-148.52;96.86
3254;BME280;1639;42.804;23.342;2023-04-01T18:01:36;72686.88;;;-148.52;96.27
3254;BME280;1639;42.804;23.342;2023-04-01T18:17:51;72688.94;;;-148.52;95.23
3254;BME280;1639;42.804;23.342;2023-04-01T18:23:00;72691.00;;;-148.52;95.32
3254;BME280;1639;42.804;23.342;2023-04-01T18:25:40;72693.09;;;-148.52;95.95
3254;BME280;1639;42.804;23.342;2023-04-01T18:36:53;72699.28;;;-148.52;98.57
3254;BME280;1639;42.804;23.342;2023-04-01T18:39:37;72701.34;;;-148.52;99.37
3254;BME280;1639;42.804;23.342;2023-04-01T18:44:53;72707.56;;;-148.52;99.03
3254;BME280;1639;42.804;23.342;2023-04-01T18:50:12;72719.97;;;-148.52;98.60
3254;BME280;1639;42.804;23.342;2023-04-01T18:52:42;72732.38;;;-148.52;99.46
3254;BME280;1639;42.804;23.342;2023-04-01T18:55:40;72730.31;;;-148.52;99.50
3254;BME280;1639;42.804;23.342;2023-04-01T18:58:17;72722.03;;;-148.52;99.31
3254;BME280;1639;42.804;23.342;2023-04-01T19:03:28;72730.31;;;-148.52;98.61
3254;BME280;1639;42.804;23.342;2023-04-01T19:06:00;72738.59;;;-148.52;99.12
3254;BME280;1639;42.804;23.342;2023-04-01T19:08:34;72744.78;;;-148.52;100.00
3254;BME280;1639;42.804;23.342;2023-04-01T19:16:50;72761.34;;;-148.52;99.18
3254;BME280;1639;42.804;23.342;2023-04-01T19:21:58;72763.41;;;-148.52;96.04
3254;BME280;1639;42.804;23.342;2023-04-01T19:27:42;72771.66;;;-148.52;95.22
3254;BME280;1639;42.804;23.342;2023-04-01T19:30:31;72773.75;;;-148.52;94.73
3254;BME280;1639;42.804;23.342;2023-04-01T19:35:58;72771.66;;;-148.52;93.28
3254;BME280;1639;42.804;23.342;2023-04-01T19:38:36;72773.75;;;-148.52;93.83
3254;BME280;1639;42.804;23.342;2023-04-01T19:44:15;72765.47;;;-148.52;94.59
3254;BME280;1639;42.804;23.342;2023-04-01T19:46:51;72759.25;;;-148.52;93.24
3254;BME280;1639;42.804;23.342;2023-04-01T19:52:02;72753.06;;;-148.52;93.95
3254;BME280;1639;42.804;23.342;2023-04-01T19:59:50;72763.41;;;-148.52;93.20
3254;BME280;1639;42.804;23.342;2023-04-01T20:02:35;72757.19;;;-148.52;92.79
3254;BME280;1639;42.804;23.342;2023-04-01T20:05:27;72765.47;;;-148.52;93.12
3254;BME280;1639;42.804;23.342;2023-04-01T20:08:07;72773.75;;;-148.52;93.08
3254;BME280;1639;42.804;23.342;2023-04-01T20:10:48;72775.81;;;-148.52;93.36
3254;BME280;1639;42.804;23.342;2023-04-01T20:13:32;72765.47;;;-148.52;93.75
3254;BME280;1639;42.804;23.342;2023-04-01T20:16:09;72757.19;;;-148.52;93.31
3254;BME280;1639;42.804;23.342;2023-04-01T20:21:17;72794.41;;;-148.52;93.76
3254;BME280;1639;42.804;23.342;2023-04-01T20:23:58;72800.63;;;-148.52;94.78
3254;BME280;1639;42.804;23.342;2023-04-01T20:26:34;72813.03;;;-148.52;96.49
3254;BME280;1639;42.804;23.342;2023-04-01T20:29:41;72821.31;;;-148.52;98.71
3254;BME280;1639;42.804;23.342;2023-04-01T20:35:44;72835.78;;;-148.52;99.17
3254;BME280;1639;42.804;23.342;2023-04-01T20:40:50;72850.25;;;-148.52;100.00
3254;BME280;1639;42.804;23.342;2023-04-01T20:46:23;72846.13;;;-148.52;99.98
3254;BME280;1639;42.804;23.342;2023-04-01T20:57:23;72788.22;;;-148.52;95.13
3254;BME280;1639;42.804;23.342;2023-04-01T21:00:40;72788.22;;;-148.52;93.34
3254;BME280;1639;42.804;23.342;2023-04-01T21:03:35;72788.22;;;-148.52;92.42
3254;BME280;1639;42.804;23.342;2023-04-01T21:14:33;72833.72;;;-148.52;93.62
3254;BME280;1639;42.804;23.342;2023-04-01T21:31:33;72827.50;;;-148.52;94.89
3254;BME280;1639;42.804;23.342;2023-04-01T21:39:19;72810.97;;;-148.52;92.04
3254;BME280;1639;42.804;23.342;2023-04-01T21:49:55;72792.34;;;-148.52;89.98
3254;BME280;1639;42.804;23.342;2023-04-01T21:52:55;72786.16;;;-148.52;90.11
3254;BME280;1639;42.804;23.342;2023-04-01T21:55:30;72790.28;;;-148.52;89.94
3254;BME280;1639;42.804;23.342;2023-04-01T21:58:24;72794.41;;;-148.52;90.62
3254;BME280;1639;42.804;23.342;2023-04-01T22:09:31;72844.06;;;-148.52;92.39
3254;BME280;1639;42.804;23.342;2023-04-01T22:12:19;72852.31;;;-148.52;91.34
3254;BME280;1639;42.804;23.342;2023-04-01T22:26:19;72848.19;;;-148.52;89.65
3254;BME280;1639;42.804;23.342;2023-04-01T22:29:11;72850.25;;;-148.52;89.37
3254;BME280;1639;42.804;23.342;2023-04-01T22:31:47;72866.81;;;-148.52;89.55
3254;BME280;1639;42.804;23.342;2023-04-01T22:37:22;72922.66;;;-148.52;89.85
3254;BME280;1639;42.804;23.342;2023-04-01T22:49:59;72897.81;;;-148.52;89.59
3254;BME280;1639;42.804;23.342;2023-04-01T22:52:35;72904.03;;;-148.52;88.26
3254;BME280;1639;42.804;23.342;2023-04-01T22:55:15;72920.56;;;-148.52;88.08
3254;BME280;1639;42.804;23.342;2023-04-01T22:57:57;72935.06;;;-148.52;87.43
3254;BME280;1639;42.804;23.342;2023-04-01T23:05:42;72978.50;;;-148.52;88.99
3254;BME280;1639;42.804;23.342;2023-04-01T23:11:47;73007.44;;;-148.52;90.12
3254;BME280;1639;42.804;23.342;2023-04-01T23:16:55;73024.00;;;-148.52;92.06